Aviation Digital Data Service (ADDS)

Output produced by METARs form (1410 UTC 25 July 2016)
found at http://aviationweather.gov/adds/metars/
 
KSLK 251130Z 2512/2612 00000KT P6SM BKN200 
     FM251400 22006KT P6SM BKN100 
     FM251900 23008KT P6SM VCSH BKN040 
     TEMPO 2519/2523 3SM TSRA BR BKN030CB 
     FM260200 25007KT P6SM BKN030